createdAt,value
2023-10-09T00:00:11.136Z,10.8
2023-10-09T00:01:13.214Z,10.8
2023-10-09T00:02:17.506Z,10.8
2023-10-09T00:03:19.591Z,10.8
2023-10-09T00:04:22.317Z,10.8
2023-10-09T00:05:24.320Z,10.8
2023-10-09T00:06:26.378Z,10.8
2023-10-09T00:07:28.821Z,10.8
2023-10-09T00:08:30.325Z,10.8
2023-10-09T00:09:31.816Z,10.8
2023-10-09T00:10:33.125Z,10.8
2023-10-09T00:11:34.641Z,10.8
2023-10-09T00:12:36.064Z,10.7
2023-10-09T00:13:37.636Z,10.7
2023-10-09T00:14:39.106Z,10.7
2023-10-09T00:15:40.562Z,10.7
2023-10-09T00:16:42.283Z,10.7
2023-10-09T00:17:44.160Z,10.7
2023-10-09T00:18:46.503Z,10.7
2023-10-09T00:19:48.448Z,10.7
2023-10-09T00:20:49.876Z,10.6
2023-10-09T00:21:51.725Z,10.6
2023-10-09T00:22:53.398Z,10.6
2023-10-09T00:23:57.124Z,10.6
2023-10-09T00:24:59.429Z,10.6
2023-10-09T00:26:00.882Z,10.6
2023-10-09T00:27:02.359Z,10.6
2023-10-09T00:28:04.777Z,10.5
2023-10-09T00:29:06.231Z,10.5
2023-10-09T00:30:07.963Z,10.5
2023-10-09T00:31:10.314Z,10.5
2023-10-09T00:32:12.479Z,10.5
2023-10-09T00:33:14.438Z,10.5
2023-10-09T00:34:16.989Z,10.4
2023-10-09T00:35:18.473Z,10.4
2023-10-09T00:36:20.177Z,10.4
2023-10-09T00:37:22.326Z,10.4
2023-10-09T00:38:23.970Z,10.4
2023-10-09T00:39:26.147Z,10.4
2023-10-09T00:40:28.220Z,10.4
2023-10-09T00:41:29.704Z,10.3
2023-10-09T00:42:31.705Z,10.3
2023-10-09T00:43:33.918Z,10.3
2023-10-09T00:44:35.399Z,10.3
2023-10-09T00:45:37.085Z,10.3
2023-10-09T00:46:38.900Z,10.3
2023-10-09T00:47:41.122Z,10.3
2023-10-09T00:48:43.045Z,10.3
2023-10-09T00:49:45.285Z,10.3
2023-10-09T00:50:46.748Z,10.2
2023-10-09T00:51:48.251Z,10.2
2023-10-09T00:52:49.834Z,10.2
2023-10-09T00:53:51.987Z,10.2
2023-10-09T00:54:54.915Z,10.2
2023-10-09T00:55:56.390Z,10.2
2023-10-09T00:56:58.035Z,10.2
2023-10-09T00:58:00.144Z,10.2
2023-10-09T00:59:01.902Z,10.2
2023-10-09T01:00:03.489Z,10.2
2023-10-09T01:01:05.528Z,10.1
2023-10-09T01:02:07.240Z,10.1
2023-10-09T01:03:09.306Z,10.1
2023-10-09T01:04:12.690Z,10.1
2023-10-09T01:05:16.324Z,10.1
2023-10-09T01:06:18.013Z,10.1
2023-10-09T01:07:19.879Z,10.1
2023-10-09T01:08:21.424Z,10
2023-10-09T01:09:23.286Z,10
2023-10-09T01:10:25.576Z,10
2023-10-09T01:11:27.117Z,10
2023-10-09T01:12:28.830Z,10
2023-10-09T01:13:30.924Z,9.9
2023-10-09T01:14:32.401Z,9.9
2023-10-09T01:15:34.012Z,9.9
2023-10-09T01:16:35.944Z,9.9
2023-10-09T01:17:38.588Z,9.9
2023-10-09T01:18:40.465Z,9.8
2023-10-09T01:19:42.299Z,9.8
2023-10-09T01:20:44.228Z,9.8
2023-10-09T01:21:45.677Z,9.8
2023-10-09T01:22:47.236Z,9.7
2023-10-09T01:23:48.814Z,9.7
2023-10-09T01:24:50.328Z,9.7
2023-10-09T01:25:51.850Z,9.7
2023-10-09T01:26:53.355Z,9.6
2023-10-09T01:27:55.241Z,9.6
2023-10-09T01:28:56.816Z,9.6
2023-10-09T01:29:58.442Z,9.6
2023-10-09T01:31:00.493Z,9.5
2023-10-09T01:32:02.628Z,9.5
2023-10-09T01:33:05.499Z,9.5
2023-10-09T01:34:07.969Z,9.5
2023-10-09T01:35:09.759Z,9.4
2023-10-09T01:36:11.648Z,9.4
2023-10-09T01:37:13.833Z,9.4
2023-10-09T01:38:15.341Z,9.4
2023-10-09T01:39:17.158Z,9.4
2023-10-09T01:40:19.316Z,9.4
2023-10-09T01:41:20.794Z,9.3
2023-10-09T01:42:23.204Z,9.3
2023-10-09T01:43:25.394Z,9.3
2023-10-09T01:44:26.868Z,9.3
2023-10-09T01:45:28.892Z,9.3
2023-10-09T01:46:30.918Z,9.2
2023-10-09T01:47:32.419Z,9.2
2023-10-09T01:48:35.052Z,9.2
2023-10-09T01:49:36.991Z,9.2
2023-10-09T01:50:38.828Z,9.2
2023-10-09T01:51:40.883Z,9.2
2023-10-09T01:52:42.436Z,9.2
2023-10-09T01:53:44.183Z,9.2
2023-10-09T01:54:45.698Z,9.2
2023-10-09T01:55:47.664Z,9.2
2023-10-09T01:56:49.337Z,9.2
2023-10-09T01:57:50.824Z,9.2
2023-10-09T01:58:52.293Z,9.2
2023-10-09T01:59:53.870Z,9.2
2023-10-09T02:00:58.246Z,9.2
2023-10-09T02:02:00.520Z,9.2
2023-10-09T02:03:02.377Z,9.3
2023-10-09T02:04:04.804Z,9.3
2023-10-09T02:05:07.123Z,9.3
2023-10-09T02:06:08.652Z,9.3
2023-10-09T02:07:10.436Z,9.3
2023-10-09T02:08:11.946Z,9.4
2023-10-09T02:09:13.591Z,9.4
2023-10-09T02:10:16.232Z,9.4
2023-10-09T02:11:18.127Z,9.4
2023-10-09T02:12:19.906Z,9.4
2023-10-09T02:13:22.091Z,9.4
2023-10-09T02:14:23.632Z,9.5
2023-10-09T02:15:27.408Z,9.5
2023-10-09T02:16:30.019Z,9.5
2023-10-09T02:17:32.225Z,9.5
2023-10-09T02:18:34.145Z,9.5
2023-10-09T02:19:36.405Z,9.5
2023-10-09T02:20:37.908Z,9.6
2023-10-09T02:21:39.553Z,9.6
2023-10-09T02:22:41.532Z,9.6
2023-10-09T02:23:43.011Z,9.6
2023-10-09T02:24:46.711Z,9.6
2023-10-09T02:25:48.479Z,9.6
2023-10-09T02:26:50.271Z,9.6
2023-10-09T02:27:51.745Z,9.6
2023-10-09T02:28:53.712Z,9.6
2023-10-09T02:29:55.679Z,9.7
2023-10-09T02:30:57.398Z,9.7
2023-10-09T02:31:59.412Z,9.7
2023-10-09T02:33:01.152Z,9.6
2023-10-09T02:34:03.664Z,9.6
2023-10-09T02:35:05.376Z,9.6
2023-10-09T02:36:07.073Z,9.6
2023-10-09T02:37:09.385Z,9.6
2023-10-09T02:38:11.219Z,9.6
2023-10-09T02:39:13.070Z,9.6
2023-10-09T02:40:15.219Z,9.6
2023-10-09T02:41:16.814Z,9.6
2023-10-09T02:42:19.130Z,9.6
2023-10-09T02:43:21.203Z,9.6
2023-10-09T02:44:22.801Z,9.5
2023-10-09T02:45:24.544Z,9.5
2023-10-09T02:46:26.796Z,9.5
2023-10-09T02:47:28.599Z,9.5
2023-10-09T02:48:32.242Z,9.5
2023-10-09T02:49:34.424Z,9.5
2023-10-09T02:50:35.939Z,9.4
2023-10-09T02:51:37.562Z,9.4
2023-10-09T02:52:39.201Z,9.4
2023-10-09T02:53:40.786Z,9.4
2023-10-09T02:54:42.479Z,9.4
2023-10-09T02:55:44.811Z,9.4
2023-10-09T02:56:46.455Z,9.4
2023-10-09T02:57:48.739Z,9.4
2023-10-09T02:58:50.321Z,9.4
2023-10-09T02:59:51.840Z,9.4
2023-10-09T03:00:53.553Z,9.4
2023-10-09T03:01:55.628Z,9.4
2023-10-09T03:02:58.178Z,9.4
2023-10-09T03:04:00.253Z,9.4
2023-10-09T03:05:02.762Z,9.4
2023-10-09T03:06:04.338Z,9.4
2023-10-09T03:07:06.352Z,9.4
2023-10-09T03:08:09.352Z,9.4
2023-10-09T03:09:11.363Z,9.4
2023-10-09T03:10:13.161Z,9.4
2023-10-09T03:11:14.794Z,9.4
2023-10-09T03:12:17.066Z,9.4
2023-10-09T03:13:19.262Z,9.4
2023-10-09T03:14:20.756Z,9.4
2023-10-09T03:15:22.728Z,9.4
2023-10-09T03:16:25.233Z,9.4
2023-10-09T03:17:27.182Z,9.4
2023-10-09T03:18:28.998Z,9.4
2023-10-09T03:19:31.267Z,9.4
2023-10-09T03:20:32.907Z,9.4
2023-10-09T03:21:35.605Z,9.4
2023-10-09T03:22:37.551Z,9.4
2023-10-09T03:23:39.035Z,9.4
2023-10-09T03:24:40.889Z,9.4
2023-10-09T03:25:42.646Z,9.4
2023-10-09T03:26:45.713Z,9.4
2023-10-09T03:27:47.429Z,9.4
2023-10-09T03:28:49.287Z,9.4
2023-10-09T03:29:51.029Z,9.4
2023-10-09T03:30:53.387Z,9.4
2023-10-09T03:31:55.323Z,9.4
2023-10-09T03:32:57.134Z,9.4
2023-10-09T03:33:59.933Z,9.4
2023-10-09T03:35:01.848Z,9.5
2023-10-09T03:36:03.710Z,9.5
2023-10-09T03:37:05.745Z,9.5
2023-10-09T03:38:07.315Z,9.5
2023-10-09T03:39:08.970Z,9.5
2023-10-09T03:40:11.292Z,9.5
2023-10-09T03:41:17.504Z,9.5
2023-10-09T03:42:19.130Z,9.5
2023-10-09T03:43:21.423Z,9.5
2023-10-09T03:44:23.601Z,9.5
2023-10-09T03:45:25.173Z,9.5
2023-10-09T03:46:27.728Z,9.5
2023-10-09T03:47:29.997Z,9.6
2023-10-09T03:48:31.958Z,9.6
2023-10-09T03:49:34.158Z,9.6
2023-10-09T03:50:35.667Z,9.6
2023-10-09T03:51:37.389Z,9.6
2023-10-09T03:52:39.760Z,9.6
2023-10-09T03:53:41.408Z,9.6
2023-10-09T03:54:43.584Z,9.6
2023-10-09T03:55:45.440Z,9.6
2023-10-09T03:56:46.980Z,9.6
2023-10-09T03:57:48.522Z,9.6
2023-10-09T03:58:50.138Z,9.6
2023-10-09T03:59:52.594Z,9.6
2023-10-09T04:00:54.936Z,9.6
2023-10-09T04:01:57.451Z,9.6
2023-10-09T04:02:59.754Z,9.6
2023-10-09T04:04:03.351Z,9.6
2023-10-09T04:05:06.546Z,9.6
2023-10-09T04:06:08.272Z,9.6
2023-10-09T04:07:10.347Z,9.6
2023-10-09T04:08:12.743Z,9.6
2023-10-09T04:09:14.462Z,9.6
2023-10-09T04:10:16.538Z,9.6
2023-10-09T04:11:18.089Z,9.6
2023-10-09T04:12:19.652Z,9.6
2023-10-09T04:13:21.575Z,9.6
2023-10-09T04:14:23.137Z,9.6
2023-10-09T04:15:24.895Z,9.6
2023-10-09T04:16:27.066Z,9.6
2023-10-09T04:17:28.761Z,9.6
2023-10-09T04:18:34.640Z,9.6
2023-10-09T04:19:37.191Z,9.6
2023-10-09T04:20:39.143Z,9.6
2023-10-09T04:21:40.785Z,9.6
2023-10-09T04:22:42.651Z,9.6
2023-10-09T04:23:44.134Z,9.6
2023-10-09T04:24:45.845Z,9.6
2023-10-09T04:25:47.804Z,9.6
2023-10-09T04:26:49.504Z,9.6
2023-10-09T04:27:53.730Z,9.6
2023-10-09T04:28:55.242Z,9.6
2023-10-09T04:29:56.726Z,9.6
2023-10-09T04:30:58.446Z,9.6
2023-10-09T04:32:00.399Z,9.7
2023-10-09T04:33:02.379Z,9.7
2023-10-09T04:34:04.632Z,9.7
2023-10-09T04:35:06.152Z,9.7
2023-10-09T04:36:07.782Z,9.7
2023-10-09T04:37:10.459Z,9.7
2023-10-09T04:38:11.912Z,9.8
2023-10-09T04:39:13.601Z,9.8
2023-10-09T04:40:15.925Z,9.8
2023-10-09T04:41:17.452Z,9.8
2023-10-09T04:42:19.325Z,9.8
2023-10-09T04:43:22.021Z,9.9
2023-10-09T04:44:23.621Z,9.9
2023-10-09T04:45:25.725Z,9.9
2023-10-09T04:46:28.663Z,9.9
2023-10-09T04:47:30.651Z,9.9
2023-10-09T04:48:32.461Z,10
2023-10-09T04:49:34.653Z,10
2023-10-09T04:50:36.141Z,10
2023-10-09T04:51:38.079Z,10
2023-10-09T04:52:40.341Z,10
2023-10-09T04:53:42.126Z,10
2023-10-09T04:54:43.745Z,10
2023-10-09T04:55:45.265Z,10.1
2023-10-09T04:56:46.871Z,10.1
2023-10-09T04:57:48.632Z,10.1
2023-10-09T04:58:50.153Z,10.1
2023-10-09T04:59:51.713Z,10.1
2023-10-09T05:00:54.869Z,10.1
2023-10-09T05:01:57.433Z,10.1
2023-10-09T05:03:00.624Z,10.1
2023-10-09T05:04:02.926Z,10.1
2023-10-09T05:05:05.420Z,10.1
2023-10-09T05:06:07.113Z,10.2
2023-10-09T05:07:08.830Z,10.2
2023-10-09T05:08:10.374Z,10.2
2023-10-09T05:09:12.151Z,10.2
2023-10-09T05:10:15.088Z,10.2
2023-10-09T05:11:21.549Z,10.2
2023-10-09T05:12:23.736Z,10.2
2023-10-09T05:13:25.883Z,10.2
2023-10-09T05:14:27.403Z,10.3
2023-10-09T05:15:29.484Z,10.3
2023-10-09T05:16:31.839Z,10.3
2023-10-09T05:17:33.975Z,10.3
2023-10-09T05:18:35.720Z,10.3
2023-10-09T05:19:37.935Z,10.3
2023-10-09T05:20:39.437Z,10.3
2023-10-09T05:21:41.067Z,10.3
2023-10-09T05:22:43.064Z,10.3
2023-10-09T05:23:44.666Z,10.4
2023-10-09T05:24:46.324Z,10.4
2023-10-09T05:25:48.364Z,10.4
2023-10-09T05:26:50.815Z,10.4
2023-10-09T05:27:52.879Z,10.4
2023-10-09T05:28:56.181Z,10.4
2023-10-09T05:29:58.558Z,10.4
2023-10-09T05:31:00.032Z,10.4
2023-10-09T05:32:02.174Z,10.4
2023-10-09T05:33:04.513Z,10.5
2023-10-09T05:34:06.937Z,10.5
2023-10-09T05:35:09.426Z,10.5
2023-10-09T05:36:11.054Z,10.5
2023-10-09T05:37:13.133Z,10.5
2023-10-09T05:38:14.687Z,10.5
2023-10-09T05:39:16.832Z,10.5
2023-10-09T05:40:19.363Z,10.5
2023-10-09T05:41:21.740Z,10.5
2023-10-09T05:42:23.412Z,10.5
2023-10-09T05:43:25.609Z,10.5
2023-10-09T05:44:27.277Z,10.5
2023-10-09T05:45:29.065Z,10.5
2023-10-09T05:46:31.350Z,10.6
2023-10-09T05:47:35.241Z,10.6
2023-10-09T05:48:37.991Z,10.6
2023-10-09T05:49:40.594Z,10.6
2023-10-09T05:50:42.071Z,10.6
2023-10-09T05:51:43.664Z,10.6
2023-10-09T05:52:45.796Z,10.6
2023-10-09T05:53:48.132Z,10.6
2023-10-09T05:54:49.905Z,10.6
2023-10-09T05:55:51.556Z,10.6
2023-10-09T05:56:53.079Z,10.6
2023-10-09T05:57:54.844Z,10.6
2023-10-09T05:58:56.320Z,10.7
2023-10-09T05:59:58.017Z,10.7
2023-10-09T06:00:59.578Z,10.7
2023-10-09T06:02:02.441Z,10.7
2023-10-09T06:03:05.386Z,10.7
2023-10-09T06:04:09.115Z,10.7
2023-10-09T06:05:12.391Z,10.7
2023-10-09T06:06:14.545Z,10.7
2023-10-09T06:07:17.054Z,10.7
2023-10-09T06:08:19.171Z,10.8
2023-10-09T06:09:21.886Z,10.8
2023-10-09T06:10:23.700Z,10.8
2023-10-09T06:11:25.199Z,10.8
2023-10-09T06:12:27.001Z,10.8
2023-10-09T06:13:29.262Z,10.8
2023-10-09T06:14:30.814Z,10.9
2023-10-09T06:15:32.888Z,10.9
2023-10-09T06:16:35.308Z,10.9
2023-10-09T06:17:37.484Z,10.9
2023-10-09T06:18:42.496Z,10.9
2023-10-09T06:19:46.648Z,10.9
2023-10-09T06:20:48.289Z,11
2023-10-09T06:21:50.379Z,11
2023-10-09T06:22:51.861Z,11
2023-10-09T06:23:53.508Z,11
2023-10-09T06:24:55.249Z,11
2023-10-09T06:25:57.452Z,11
2023-10-09T06:26:59.038Z,11.1
2023-10-09T06:28:00.764Z,11.1
2023-10-09T06:29:02.527Z,11.1
2023-10-09T06:30:04.075Z,11.1
2023-10-09T06:31:06.151Z,11.1
2023-10-09T06:32:08.406Z,11.1
2023-10-09T06:33:10.061Z,11.1
2023-10-09T06:34:12.885Z,11.2
2023-10-09T06:35:15.646Z,11.2
2023-10-09T06:36:17.634Z,11.2
2023-10-09T06:37:19.738Z,11.2
2023-10-09T06:38:21.315Z,11.3
2023-10-09T06:39:23.013Z,11.3
2023-10-09T06:40:25.084Z,11.3
2023-10-09T06:41:26.600Z,11.3
2023-10-09T06:42:28.207Z,11.3
2023-10-09T06:43:30.174Z,11.4
2023-10-09T06:44:31.815Z,11.4
2023-10-09T06:45:33.461Z,11.4
2023-10-09T06:46:35.968Z,11.4
2023-10-09T06:47:37.904Z,11.4
2023-10-09T06:48:39.453Z,11.5
2023-10-09T06:49:41.762Z,11.5
2023-10-09T06:50:43.644Z,11.5
2023-10-09T06:51:45.391Z,11.5
2023-10-09T06:52:47.541Z,11.5
2023-10-09T06:53:48.986Z,11.6
2023-10-09T06:54:50.422Z,11.6
2023-10-09T06:55:52.804Z,11.6
2023-10-09T06:56:54.354Z,11.6
2023-10-09T06:57:55.891Z,11.6
2023-10-09T06:58:57.430Z,11.6
2023-10-09T06:59:58.922Z,11.7
2023-10-09T07:01:01.120Z,11.7
2023-10-09T07:02:03.482Z,11.7
2023-10-09T07:03:05.294Z,11.7
2023-10-09T07:04:07.922Z,11.7
2023-10-09T07:05:14.448Z,11.8
2023-10-09T07:06:16.067Z,11.8
2023-10-09T07:07:17.378Z,11.8
2023-10-09T07:08:19.479Z,11.8
2023-10-09T07:09:21.442Z,11.8
2023-10-09T07:10:22.657Z,11.9
2023-10-09T07:11:24.018Z,11.9
2023-10-09T07:12:25.247Z,11.9
2023-10-09T07:13:27.327Z,11.9
2023-10-09T07:14:28.856Z,11.9
2023-10-09T07:15:30.088Z,12
2023-10-09T07:16:32.208Z,12
2023-10-09T07:17:35.243Z,12
2023-10-09T07:18:37.495Z,12
2023-10-09T07:19:39.643Z,12
2023-10-09T07:20:40.990Z,12.1
2023-10-09T07:21:42.536Z,12.1
2023-10-09T07:22:45.060Z,12.1
2023-10-09T07:23:47.122Z,12.1
2023-10-09T07:24:48.613Z,12.1
2023-10-09T07:25:50.155Z,12.1
2023-10-09T07:26:51.356Z,12.2
2023-10-09T07:27:52.983Z,12.2
2023-10-09T07:28:54.188Z,12.2
2023-10-09T07:29:55.401Z,12.2
2023-10-09T07:30:56.689Z,12.2
2023-10-09T07:31:58.732Z,12.2
2023-10-09T07:33:00.126Z,12.3
2023-10-09T07:34:01.833Z,12.3
2023-10-09T07:35:03.357Z,12.3
2023-10-09T07:36:05.042Z,12.3
2023-10-09T07:37:07.072Z,12.3
2023-10-09T07:38:08.612Z,12.4
2023-10-09T07:39:09.902Z,12.4
2023-10-09T07:40:11.253Z,12.4
2023-10-09T07:41:12.781Z,12.4
2023-10-09T07:42:14.432Z,12.4
2023-10-09T07:43:16.783Z,12.5
2023-10-09T07:44:18.275Z,12.5
2023-10-09T07:45:20.176Z,12.5
2023-10-09T07:46:23.330Z,12.5
2023-10-09T07:47:25.599Z,12.6
2023-10-09T07:48:27.628Z,12.6
2023-10-09T07:49:32.277Z,12.6
2023-10-09T07:50:33.991Z,12.6
2023-10-09T07:51:35.695Z,12.6
2023-10-09T07:52:38.051Z,12.7
2023-10-09T07:53:39.533Z,12.7
2023-10-09T07:54:41.317Z,12.7
2023-10-09T07:55:43.360Z,12.7
2023-10-09T07:56:44.906Z,12.8
2023-10-09T07:57:46.461Z,12.8
2023-10-09T07:58:48.317Z,12.8
2023-10-09T07:59:50.027Z,12.8
2023-10-09T08:00:51.746Z,12.8
2023-10-09T08:01:54.465Z,12.8
2023-10-09T08:02:56.421Z,12.8
2023-10-09T08:03:59.065Z,12.9
2023-10-09T08:05:01.212Z,12.9
2023-10-09T08:06:03.528Z,12.9
2023-10-09T08:08:12.101Z,12.9
2023-10-09T08:09:40.893Z,12.9
2023-10-09T08:10:42.769Z,13
2023-10-09T08:11:44.358Z,13
2023-10-09T08:12:46.231Z,13
2023-10-09T08:13:48.416Z,13.1
2023-10-09T08:14:50.325Z,13.1
2023-10-09T08:15:52.118Z,13.1
2023-10-09T08:16:54.805Z,13.2
2023-10-09T08:17:56.552Z,13.2
2023-10-09T08:18:58.884Z,13.3
2023-10-09T08:20:00.620Z,13.3
2023-10-09T08:21:02.161Z,13.4
2023-10-09T08:22:04.003Z,13.4
2023-10-09T08:23:05.839Z,13.4
2023-10-09T08:24:07.794Z,13.5
2023-10-09T08:25:09.956Z,13.5
2023-10-09T08:26:11.760Z,13.6
2023-10-09T08:27:13.589Z,13.6
2023-10-09T08:28:15.708Z,13.6
2023-10-09T08:29:17.491Z,13.7
2023-10-09T08:30:19.360Z,13.7
2023-10-09T08:31:21.951Z,13.7
2023-10-09T08:35:00.108Z,13.8
2023-10-09T08:36:05.131Z,13.8
2023-10-09T08:37:08.606Z,13.9
2023-10-09T08:38:11.589Z,13.9
2023-10-09T08:39:14.946Z,13.9
2023-10-09T08:40:17.069Z,13.9
2023-10-09T08:41:19.335Z,14
2023-10-09T08:42:21.297Z,14
2023-10-09T08:43:23.812Z,14
2023-10-09T08:44:25.854Z,14
2023-10-09T08:46:11.674Z,14.4
2023-10-09T08:47:13.750Z,14.4
2023-10-09T08:48:15.491Z,14.4
2023-10-09T08:49:18.648Z,14.4
2023-10-09T08:50:20.212Z,14.4
2023-10-09T08:51:21.873Z,14.4
2023-10-09T08:52:25.409Z,14.4
2023-10-09T08:53:27.302Z,14.4
2023-10-09T08:54:29.013Z,14.4
2023-10-09T08:55:30.994Z,14.4
2023-10-09T08:56:33.051Z,14.5
2023-10-09T08:57:35.505Z,14.5
2023-10-09T08:58:37.239Z,14.5
2023-10-09T08:59:45.730Z,14.5
2023-10-09T09:00:50.269Z,14.5
2023-10-09T09:01:52.684Z,14.5
2023-10-09T09:02:56.257Z,14.5
2023-10-09T09:03:58.401Z,14.6
2023-10-09T09:05:01.223Z,14.6
2023-10-09T09:06:06.261Z,14.6
2023-10-09T09:07:08.228Z,14.6
2023-10-09T09:08:10.472Z,14.6
2023-10-09T09:09:12.122Z,14.6
2023-10-09T09:10:15.032Z,14.6
2023-10-09T09:11:17.004Z,14.7
2023-10-09T09:12:18.756Z,14.7
2023-10-09T09:13:20.850Z,14.7
2023-10-09T09:14:22.319Z,14.7
2023-10-09T09:15:23.962Z,14.7
2023-10-09T09:16:27.002Z,14.7
2023-10-09T09:17:29.220Z,14.7
2023-10-09T09:18:31.958Z,14.8
2023-10-09T09:19:34.655Z,14.8
2023-10-09T09:20:36.524Z,14.8
2023-10-09T09:21:38.932Z,14.8
2023-10-09T09:22:40.768Z,14.8
2023-10-09T09:23:43.162Z,14.8
2023-10-09T09:24:44.749Z,14.9
2023-10-09T09:25:46.493Z,14.9
2023-10-09T09:26:48.784Z,14.9
2023-10-09T09:27:50.595Z,14.9
2023-10-09T09:28:52.270Z,14.9
2023-10-09T09:29:54.424Z,14.9
2023-10-09T09:30:56.389Z,15
2023-10-09T09:32:00.465Z,15
2023-10-09T09:33:02.770Z,15
2023-10-09T09:34:04.934Z,15
2023-10-09T09:35:09.863Z,15.1
2023-10-09T09:36:12.026Z,15.1
2023-10-09T09:37:13.871Z,15.1
2023-10-09T09:38:15.495Z,15.1
2023-10-09T09:39:17.137Z,15.2
2023-10-09T09:40:18.882Z,15.2
2023-10-09T09:41:20.638Z,15.2
2023-10-09T09:42:22.359Z,15.2
2023-10-09T09:43:24.485Z,15.3
2023-10-09T09:44:26.726Z,15.3
2023-10-09T09:45:28.186Z,15.3
2023-10-09T09:46:29.837Z,15.4
2023-10-09T09:47:32.729Z,15.4
2023-10-09T09:48:35.726Z,15.4
2023-10-09T09:49:38.295Z,15.5
2023-10-09T09:50:40.255Z,15.5
2023-10-09T09:51:41.843Z,15.5
2023-10-09T09:52:43.655Z,15.6
2023-10-09T09:53:45.748Z,15.6
2023-10-09T09:54:47.435Z,15.6
2023-10-09T09:55:49.236Z,15.6
2023-10-09T09:56:51.770Z,15.6
2023-10-09T09:57:54.026Z,15.7
2023-10-09T09:58:55.897Z,15.7
2023-10-09T09:59:58.118Z,15.7
2023-10-09T10:00:59.804Z,15.7
2023-10-09T10:02:02.070Z,15.7
2023-10-09T10:03:04.958Z,15.7
2023-10-09T10:04:07.564Z,15.8
2023-10-09T10:05:09.218Z,15.8
2023-10-09T10:06:10.733Z,15.8
2023-10-09T10:07:12.476Z,15.8
2023-10-09T10:08:14.288Z,15.8
2023-10-09T10:09:15.984Z,15.8
2023-10-09T10:10:17.864Z,15.8
2023-10-09T10:11:19.414Z,15.9
2023-10-09T10:12:20.956Z,15.9
2023-10-09T10:13:22.750Z,15.9
2023-10-09T10:14:24.387Z,16
2023-10-09T10:15:29.466Z,16
2023-10-09T10:16:32.472Z,16
2023-10-09T10:17:35.714Z,16.1
2023-10-09T10:18:38.419Z,16.1
2023-10-09T10:19:42.224Z,16.2
2023-10-09T10:20:46.201Z,16.2
2023-10-09T10:21:47.812Z,16.2
2023-10-09T10:22:49.773Z,16.3
2023-10-09T10:23:51.630Z,16.3
2023-10-09T10:24:53.281Z,16.3
2023-10-09T10:25:55.337Z,16.3
2023-10-09T10:26:57.400Z,16.4
2023-10-09T10:27:58.937Z,16.4
2023-10-09T10:29:00.691Z,16.4
2023-10-09T10:30:02.543Z,16.4
2023-10-09T10:31:04.833Z,16.4
2023-10-09T10:32:06.839Z,16.5
2023-10-09T10:33:09.087Z,16.5
2023-10-09T10:34:11.202Z,16.5
2023-10-09T10:35:13.382Z,16.5
2023-10-09T10:36:15.118Z,16.5
2023-10-09T10:37:18.915Z,16.6
2023-10-09T10:38:20.515Z,16.6
2023-10-09T10:39:22.015Z,16.6
2023-10-09T10:40:24.279Z,16.6
2023-10-09T10:41:25.862Z,16.7
2023-10-09T10:42:27.479Z,16.7
2023-10-09T10:43:29.049Z,16.7
2023-10-09T10:44:32.837Z,16.7
2023-10-09T10:45:34.881Z,16.7
2023-10-09T10:46:36.553Z,16.8
2023-10-09T10:47:39.606Z,16.8
2023-10-09T10:48:41.476Z,16.8
2023-10-09T10:49:43.152Z,16.8
2023-10-09T10:50:46.166Z,16.9
2023-10-09T10:51:47.874Z,16.9
2023-10-09T10:52:49.840Z,16.9
2023-10-09T10:53:52.324Z,16.9
2023-10-09T10:54:54.800Z,16.9
2023-10-09T10:55:56.712Z,16.9
2023-10-09T10:56:59.254Z,16.9
2023-10-09T10:58:01.063Z,16.9
2023-10-09T10:59:03.259Z,16.9
2023-10-09T11:00:05.666Z,17
2023-10-09T11:01:07.145Z,17
2023-10-09T11:02:09.027Z,17
2023-10-09T11:03:11.920Z,17
2023-10-09T11:04:15.698Z,17
2023-10-09T11:05:19.260Z,17
2023-10-09T11:06:22.565Z,17.1
2023-10-09T11:07:24.608Z,17.1
2023-10-09T11:08:26.345Z,17.1
2023-10-09T11:09:52.827Z,17.1
2023-10-09T11:10:55.942Z,17.2
2023-10-09T11:11:57.930Z,17.2
2023-10-09T11:12:59.532Z,17.2
2023-10-09T11:14:01.186Z,17.2
2023-10-09T11:15:03.384Z,17.2
2023-10-09T11:16:05.260Z,17.3
2023-10-09T11:17:07.193Z,17.3
2023-10-09T11:18:10.439Z,17.3
2023-10-09T11:19:12.723Z,17.3
2023-10-09T11:20:14.985Z,17.4
2023-10-09T11:21:16.509Z,17.4
2023-10-09T11:22:18.008Z,17.4
2023-10-09T11:23:19.544Z,17.4
2023-10-09T11:24:21.021Z,17.4
2023-10-09T11:25:22.612Z,17.4
2023-10-09T11:26:24.140Z,17.4
2023-10-09T11:27:25.778Z,17.4
2023-10-09T11:28:31.640Z,17.4
2023-10-09T11:29:33.904Z,17.4
2023-10-09T11:30:35.475Z,17.5
2023-10-09T11:31:37.668Z,17.5
2023-10-09T11:32:42.280Z,17.5
2023-10-09T11:33:44.299Z,17.5
2023-10-09T11:34:45.867Z,17.5
2023-10-09T11:35:48.045Z,17.5
2023-10-09T11:36:49.568Z,17.5
2023-10-09T11:37:51.414Z,17.5
2023-10-09T11:38:53.604Z,17.5
2023-10-09T11:39:59.281Z,17.5
2023-10-09T11:41:01.163Z,17.5
2023-10-09T11:42:03.535Z,17.5
2023-10-09T11:43:05.282Z,17.6
2023-10-09T11:44:06.847Z,17.6
2023-10-09T11:45:09.074Z,17.6
2023-10-09T11:46:10.708Z,17.6
2023-10-09T11:47:13.301Z,17.7
2023-10-09T11:48:16.063Z,17.7
2023-10-09T11:49:17.817Z,17.7
2023-10-09T11:50:19.759Z,17.7
2023-10-09T11:51:21.839Z,17.8
2023-10-09T11:52:23.339Z,17.8
2023-10-09T11:53:25.166Z,17.8
2023-10-09T11:54:29.511Z,17.8
2023-10-09T11:55:31.181Z,17.9
2023-10-09T11:56:33.561Z,17.9
2023-10-09T11:57:35.107Z,17.9
2023-10-09T11:58:36.672Z,17.9
2023-10-09T11:59:38.931Z,18
2023-10-09T12:00:41.546Z,18
2023-10-09T12:01:43.826Z,18
2023-10-09T12:02:46.478Z,18
2023-10-09T12:03:49.278Z,18
2023-10-09T12:04:51.672Z,18.1
2023-10-09T12:05:54.164Z,18.1
2023-10-09T12:06:55.810Z,18.1
2023-10-09T12:07:57.486Z,18.1
2023-10-09T12:08:59.610Z,18.2
2023-10-09T12:10:01.215Z,18.2
2023-10-09T12:11:02.803Z,18.2
2023-10-09T12:12:04.962Z,18.2
2023-10-09T12:13:06.448Z,18.3
2023-10-09T12:14:08.067Z,18.3
2023-10-09T12:15:10.149Z,18.3
2023-10-09T12:16:11.962Z,18.3
2023-10-09T12:17:14.412Z,18.4
2023-10-09T12:18:17.162Z,18.4
2023-10-09T12:19:19.179Z,18.4
2023-10-09T12:20:20.689Z,18.5
2023-10-09T12:21:22.169Z,18.5
2023-10-09T12:22:23.767Z,18.5
2023-10-09T12:23:25.264Z,18.6
2023-10-09T12:24:26.775Z,18.6
2023-10-09T12:25:28.265Z,18.6
2023-10-09T12:26:29.926Z,18.6
2023-10-09T12:27:31.478Z,18.6
2023-10-09T12:28:33.129Z,18.7
2023-10-09T12:29:35.008Z,18.7
2023-10-09T12:30:36.599Z,18.7
2023-10-09T12:31:38.388Z,18.7
2023-10-09T12:32:40.638Z,18.7
2023-10-09T12:33:43.138Z,18.7
2023-10-09T12:34:45.609Z,18.7
2023-10-09T12:35:47.860Z,18.7
2023-10-09T12:36:50.123Z,18.7
2023-10-09T12:37:51.824Z,18.7
2023-10-09T12:38:53.796Z,18.7
2023-10-09T12:39:55.883Z,18.7
2023-10-09T12:40:57.506Z,18.7
2023-10-09T12:41:59.520Z,18.7
2023-10-09T12:43:01.290Z,18.7
2023-10-09T12:44:02.965Z,18.7
2023-10-09T12:45:05.206Z,18.7
2023-10-09T12:46:06.739Z,18.7
2023-10-09T12:47:08.544Z,18.7
2023-10-09T12:48:11.122Z,18.7
2023-10-09T12:49:13.703Z,18.6
2023-10-09T12:50:15.365Z,18.6
2023-10-09T12:51:17.277Z,18.6
2023-10-09T12:52:19.681Z,18.6
2023-10-09T12:53:21.230Z,18.6
2023-10-09T12:54:22.757Z,18.6
2023-10-09T12:55:24.293Z,18.6
2023-10-09T12:56:26.174Z,18.6
2023-10-09T12:57:27.705Z,18.5
2023-10-09T12:58:29.198Z,18.5
2023-10-09T12:59:30.657Z,18.5
2023-10-09T13:00:32.311Z,18.5
2023-10-09T13:01:34.742Z,18.5
2023-10-09T13:02:36.587Z,18.5
2023-10-09T13:03:39.175Z,18.5
2023-10-09T13:04:42.187Z,18.5
2023-10-09T13:05:45.437Z,18.5
2023-10-09T13:06:47.518Z,18.5
2023-10-09T13:07:49.484Z,18.5
2023-10-09T13:08:51.638Z,18.5
2023-10-09T13:09:53.280Z,18.5
2023-10-09T13:10:55.686Z,18.5
2023-10-09T13:11:57.856Z,18.5
2023-10-09T13:12:59.409Z,18.5
2023-10-09T13:14:01.194Z,18.5
2023-10-09T13:15:03.757Z,18.5
2023-10-09T13:16:05.531Z,18.5
2023-10-09T13:17:07.484Z,18.4
2023-10-09T13:18:09.921Z,18.4
2023-10-09T13:19:11.920Z,18.4
2023-10-09T13:20:14.424Z,18.4
2023-10-09T13:21:16.923Z,18.4
2023-10-09T13:22:18.400Z,18.4
2023-10-09T13:23:19.953Z,18.4
2023-10-09T13:24:21.764Z,18.4
2023-10-09T13:25:36.152Z,18.4
2023-10-09T13:26:38.853Z,18.4
2023-10-09T13:27:41.141Z,18.4
2023-10-09T13:28:42.669Z,18.5
2023-10-09T13:29:44.657Z,18.5
2023-10-09T13:30:46.273Z,18.5
2023-10-09T13:31:48.152Z,18.5
2023-10-09T13:32:50.820Z,18.5
2023-10-09T13:33:53.324Z,18.5
2023-10-09T13:34:55.527Z,18.5
2023-10-09T13:35:58.066Z,18.5
2023-10-09T13:37:00.816Z,18.5
2023-10-09T13:38:02.696Z,18.5
2023-10-09T13:39:04.961Z,18.5
2023-10-09T13:40:06.575Z,18.5
2023-10-09T13:41:08.443Z,18.5
2023-10-09T13:42:10.351Z,18.5
2023-10-09T13:43:13.153Z,18.6
2023-10-09T13:44:15.629Z,18.6
2023-10-09T13:45:18.832Z,18.6
2023-10-09T13:46:20.457Z,18.6
2023-10-09T13:47:22.612Z,18.6
2023-10-09T13:48:25.199Z,18.6
2023-10-09T13:49:27.224Z,18.6
2023-10-09T13:50:28.753Z,18.6
2023-10-09T13:51:30.169Z,18.6
2023-10-09T13:52:32.619Z,18.6
2023-10-09T13:53:35.845Z,18.6
2023-10-09T13:54:37.591Z,18.6
2023-10-09T13:55:39.904Z,18.6
2023-10-09T13:56:41.941Z,18.6
2023-10-09T13:57:44.595Z,18.6
2023-10-09T13:58:46.266Z,18.6
2023-10-09T13:59:48.303Z,18.6
2023-10-09T14:00:49.821Z,18.6
2023-10-09T14:01:51.636Z,18.6